Time;durP1;ratioP1;P1;durP2;ratioP2;P2;SDS_P1;SDS_P2;PMS_P1;PMS_P2;Temp;Humidity;BMP_temperature;BMP_pressure;BME280_temperature;BME280_humidity;BME280_pressure;Samples;Min_cycle;Max_cycle;Signal;HPM_P1;HPM_P2
2022/03/04 00:02:04;;;;;;;12.53;7.27;;;1.90;99.90;;;;;;4941066;29;20191;-88
2022/03/04 00:04:32;;;;;;;13.40;7.13;;;1.90;99.90;;;;;;4941106;29;20192;-88
2022/03/04 00:06:58;;;;;;;12.73;7.40;;;1.90;99.90;;;;;;4940639;28;20188;-88
2022/03/04 00:09:24;;;;;;;13.17;6.87;;;1.90;99.90;;;;;;4957470;29;20221;-87
2022/03/04 00:11:50;;;;;;;12.70;6.80;;;2.00;99.90;;;;;;4940713;29;20185;-88
2022/03/04 00:14:15;;;;;;;12.30;7.53;;;1.90;99.90;;;;;;4940663;29;20269;-88
2022/03/04 00:16:41;;;;;;;16.00;8.33;;;1.90;99.90;;;;;;4940824;29;20189;-89
2022/03/04 00:19:07;;;;;;;13.40;7.73;;;1.90;99.90;;;;;;4940748;29;20211;-87
2022/03/04 00:21:38;;;;;;;13.13;7.67;;;2.00;99.90;;;;;;4940861;29;20181;-88
2022/03/04 00:24:09;;;;;;;14.77;8.03;;;1.90;99.90;;;;;;4973652;28;20500;-89
2022/03/04 00:26:36;;;;;;;11.97;7.50;;;1.80;99.90;;;;;;4958755;28;20176;-87
2022/03/04 00:29:03;;;;;;;18.40;8.77;;;1.70;99.90;;;;;;4959692;28;20200;-88
2022/03/04 00:31:29;;;;;;;13.57;8.27;;;1.70;99.90;;;;;;4959065;28;20640;-88
2022/03/04 00:33:55;;;;;;;15.20;8.43;;;1.60;99.90;;;;;;4959617;28;20184;-88
2022/03/04 00:36:22;;;;;;;16.43;8.00;;;1.60;99.90;;;;;;4959605;28;20216;-88
2022/03/04 00:38:52;;;;;;;12.60;7.77;;;1.60;99.90;;;;;;4959900;28;20273;-88
2022/03/04 00:41:20;;;;;;;18.03;9.03;;;1.60;99.90;;;;;;4959525;28;20652;-89
2022/03/04 00:43:46;;;;;;;17.67;8.53;;;1.50;99.90;;;;;;4959447;28;20248;-88
2022/03/04 00:46:13;;;;;;;14.13;7.53;;;1.50;99.90;;;;;;4959661;28;20237;-88
2022/03/04 00:48:40;;;;;;;15.53;8.73;;;1.50;99.90;;;;;;4959493;28;20221;-88
2022/03/04 00:51:06;;;;;;;15.43;8.10;;;1.50;99.90;;;;;;4959376;28;20284;-88
2022/03/04 00:53:32;;;;;;;15.93;8.47;;;1.50;99.90;;;;;;4959390;28;20259;-89
2022/03/04 00:55:58;;;;;;;12.33;7.13;;;1.50;99.90;;;;;;4958969;28;20271;-88
2022/03/04 00:58:25;;;;;;;15.13;8.83;;;1.50;99.90;;;;;;4976443;28;20227;-88
2022/03/04 01:00:51;;;;;;;17.43;9.43;;;1.50;99.90;;;;;;4959284;28;20188;-88
2022/03/04 01:03:17;;;;;;;14.47;7.70;;;1.40;99.90;;;;;;4959234;28;20181;-88
2022/03/04 01:05:43;;;;;;;13.13;8.10;;;1.50;99.90;;;;;;4959274;28;20256;-88
2022/03/04 01:08:09;;;;;;;15.03;8.70;;;1.50;99.90;;;;;;4959126;28;20204;-88
2022/03/04 01:10:35;;;;;;;15.83;8.17;;;1.50;99.90;;;;;;4959191;28;20243;-88
2022/03/04 01:13:01;;;;;;;15.10;9.07;;;1.50;99.90;;;;;;4976141;28;20188;-88
2022/03/04 01:15:27;;;;;;;17.77;8.43;;;1.50;99.90;;;;;;4959201;28;20252;-89
2022/03/04 01:17:53;;;;;;;13.27;7.90;;;1.40;99.90;;;;;;4958913;28;20279;-89
2022/03/04 01:20:19;;;;;;;17.70;9.20;;;1.50;99.90;;;;;;4958295;28;20271;-89
2022/03/04 01:22:45;;;;;;;15.27;8.77;;;1.40;99.90;;;;;;4958937;28;20188;-89
2022/03/04 01:25:11;;;;;;;18.43;8.43;;;1.40;99.90;;;;;;4958787;28;20292;-89
2022/03/04 01:27:37;;;;;;;17.70;9.13;;;1.40;99.90;;;;;;4958719;28;20520;-88
2022/03/04 01:30:05;;;;;;;13.63;8.73;;;1.40;99.90;;;;;;4958786;28;20200;-89
2022/03/04 01:32:30;;;;;;;12.50;7.77;;;1.40;99.90;;;;;;4976015;28;20226;-88
2022/03/04 01:34:56;;;;;;;13.97;8.10;;;1.40;99.90;;;;;;4958997;28;20189;-88
2022/03/04 01:37:22;;;;;;;15.17;8.90;;;1.50;99.90;;;;;;4957799;28;20603;-88
2022/03/04 01:39:47;;;;;;;14.50;8.30;;;1.50;99.90;;;;;;4959004;28;20597;-88
2022/03/04 01:42:14;;;;;;;17.13;8.80;;;1.50;99.90;;;;;;4958476;28;20181;-89
2022/03/04 01:44:40;;;;;;;15.57;8.73;;;1.50;99.90;;;;;;4958095;28;20181;-89
2022/03/04 01:47:06;;;;;;;15.70;8.70;;;1.40;99.90;;;;;;4958834;28;20188;-89
2022/03/04 01:49:32;;;;;;;16.70;8.90;;;1.40;99.90;;;;;;4958538;28;20180;-89
2022/03/04 01:51:59;;;;;;;17.53;9.23;;;1.40;99.90;;;;;;4975851;28;20254;-88
2022/03/04 01:54:24;;;;;;;14.60;8.77;;;1.40;99.90;;;;;;4958544;28;20193;-88
2022/03/04 01:56:50;;;;;;;14.70;9.30;;;1.40;99.90;;;;;;4958465;28;20232;-88
2022/03/04 01:59:16;;;;;;;14.23;8.83;;;1.40;99.90;;;;;;4958569;28;20172;-88
2022/03/04 02:01:42;;;;;;;16.07;9.07;;;1.40;99.90;;;;;;4958637;28;20341;-88
2022/03/04 02:04:08;;;;;;;15.40;8.73;;;1.50;99.90;;;;;;4975859;28;20177;-88
2022/03/04 02:06:33;;;;;;;15.10;9.07;;;1.40;99.90;;;;;;4975851;28;20178;-88
2022/03/04 02:09:00;;;;;;;17.30;9.13;;;1.40;99.90;;;;;;4958018;28;20611;-88
2022/03/04 02:11:26;;;;;;;16.63;9.70;;;1.40;99.90;;;;;;4958540;28;20266;-88
2022/03/04 02:13:52;;;;;;;13.63;8.10;;;1.40;99.90;;;;;;4958331;28;20524;-88
2022/03/04 02:16:24;;;;;;;18.93;9.03;;;1.40;99.90;;;;;;4958730;28;20267;-88
2022/03/04 02:18:50;;;;;;;15.77;9.50;;;1.40;99.90;;;;;;4958501;28;20607;-88
2022/03/04 02:21:17;;;;;;;14.83;9.10;;;1.40;99.90;;;;;;4958496;28;20257;-88
2022/03/04 02:23:43;;;;;;;14.33;8.17;;;1.40;99.90;;;;;;4958361;28;20173;-89
2022/03/04 02:26:09;;;;;;;15.13;8.70;;;1.40;99.90;;;;;;4958482;28;20180;-87
2022/03/04 02:28:35;;;;;;;17.47;8.67;;;1.30;99.90;;;;;;4974904;28;20231;-89
2022/03/04 02:31:00;;;;;;;14.50;9.03;;;1.30;99.90;;;;;;4959520;28;20642;-88
2022/03/04 02:33:27;;;;;;;14.13;8.17;;;1.30;99.90;;;;;;4962436;28;20179;-89
2022/03/04 02:35:53;;;;;;;15.90;9.53;;;1.40;99.90;;;;;;4961627;28;20185;-88
2022/03/04 02:38:18;;;;;;;13.57;8.13;;;1.40;99.90;;;;;;4961805;28;20640;-89
2022/03/04 02:40:44;;;;;;;14.10;8.80;;;1.40;99.90;;;;;;4961927;28;20196;-88
2022/03/04 02:43:09;;;;;;;16.23;9.13;;;1.40;99.90;;;;;;4978792;28;20255;-88
2022/03/04 02:45:35;;;;;;;18.43;8.97;;;1.40;99.90;;;;;;4961613;28;20184;-89
2022/03/04 02:48:01;;;;;;;17.00;9.83;;;1.40;99.90;;;;;;4961538;28;20186;-89
2022/03/04 02:50:27;;;;;;;14.57;8.43;;;1.40;99.90;;;;;;4961354;28;20263;-88
2022/03/04 02:52:52;;;;;;;15.43;8.33;;;1.40;99.90;;;;;;4961596;28;20255;-89
2022/03/04 02:55:18;;;;;;;17.57;9.17;;;1.40;99.90;;;;;;4978682;28;20221;-88
2022/03/04 02:57:47;;;;;;;16.93;10.00;;;1.30;99.90;;;;;;4961263;28;20188;-89
2022/03/04 03:00:14;;;;;;;16.03;8.67;;;1.40;99.90;;;;;;4961224;28;20615;-89
2022/03/04 03:02:41;;;;;;;16.43;8.30;;;1.40;99.90;;;;;;4961553;28;20267;-87
2022/03/04 03:05:07;;;;;;;15.40;8.50;;;1.30;99.90;;;;;;4961467;28;20204;-89
2022/03/04 03:07:33;;;;;;;12.20;8.77;;;1.30;99.90;;;;;;4961359;28;20181;-87
2022/03/04 03:09:59;;;;;;;13.00;8.33;;;1.30;99.90;;;;;;4961423;28;20276;-89
2022/03/04 03:12:26;;;;;;;13.03;8.20;;;1.20;99.90;;;;;;4961250;28;20202;-89
2022/03/04 03:14:51;;;;;;;14.97;8.57;;;1.20;99.90;;;;;;4960727;28;20274;-88
2022/03/04 03:17:17;;;;;;;14.17;8.40;;;1.20;99.90;;;;;;4961072;28;20221;-89
2022/03/04 03:19:43;;;;;;;15.93;9.17;;;1.20;99.90;;;;;;4960763;28;20182;-89
2022/03/04 03:22:09;;;;;;;15.40;8.57;;;1.20;99.90;;;;;;4961148;28;20556;-89
2022/03/04 03:24:35;;;;;;;18.73;8.70;;;1.20;99.90;;;;;;4961118;28;20623;-89
2022/03/04 03:27:00;;;;;;;15.43;8.10;;;1.20;99.90;;;;;;4960809;28;20188;-89
2022/03/04 03:29:27;;;;;;;12.53;7.97;;;1.20;99.90;;;;;;4960746;28;20177;-89
2022/03/04 03:31:53;;;;;;;16.67;8.63;;;1.20;99.90;;;;;;4960973;28;20280;-88
2022/03/04 03:34:18;;;;;;;16.30;8.20;;;1.20;99.90;;;;;;4960728;28;20204;-88
2022/03/04 03:36:44;;;;;;;14.60;8.57;;;1.20;99.90;;;;;;4960721;28;20177;-88
2022/03/04 03:39:10;;;;;;;15.77;8.93;;;1.20;99.90;;;;;;4960942;28;20234;-89
2022/03/04 03:41:36;;;;;;;15.93;9.10;;;1.20;99.90;;;;;;4960928;28;20265;-89
2022/03/04 03:44:02;;;;;;;16.97;9.03;;;1.20;99.90;;;;;;4959454;28;20573;-88
2022/03/04 03:46:28;;;;;;;16.07;9.60;;;1.10;99.90;;;;;;4960353;28;20180;-87
2022/03/04 03:48:53;;;;;;;14.50;8.60;;;1.20;99.90;;;;;;4960304;28;20186;-89
2022/03/04 03:51:19;;;;;;;14.47;8.90;;;1.20;99.90;;;;;;4960612;28;20216;-88
2022/03/04 03:53:45;;;;;;;15.63;9.03;;;1.10;99.90;;;;;;4960445;28;20264;-88
2022/03/04 03:56:11;;;;;;;17.30;8.33;;;1.10;99.90;;;;;;4977545;28;20287;-88
2022/03/04 03:58:37;;;;;;;13.97;8.40;;;1.20;99.90;;;;;;4960421;28;20219;-88
2022/03/04 04:01:03;;;;;;;16.60;9.17;;;1.10;99.90;;;;;;4960655;28;20523;-88
2022/03/04 04:03:29;;;;;;;19.73;9.73;;;1.10;99.90;;;;;;4960590;28;20203;-88
2022/03/04 04:05:55;;;;;;;17.63;9.43;;;1.10;99.90;;;;;;4977666;28;20182;-89
2022/03/04 04:08:21;;;;;;;15.73;9.30;;;1.00;99.90;;;;;;4960305;28;20198;-88
2022/03/04 04:10:46;;;;;;;15.07;8.73;;;1.00;99.90;;;;;;4960397;28;20220;-88
2022/03/04 04:13:12;;;;;;;19.37;9.67;;;1.00;99.90;;;;;;4960149;28;20180;-89
2022/03/04 04:15:38;;;;;;;15.40;9.13;;;1.00;99.90;;;;;;4959841;28;20183;-88
2022/03/04 04:18:05;;;;;;;14.93;8.90;;;0.90;99.90;;;;;;4959839;28;20188;-87
2022/03/04 04:20:32;;;;;;;15.47;8.80;;;0.90;99.90;;;;;;4977067;28;20177;-88
2022/03/04 04:22:57;;;;;;;15.70;8.80;;;0.90;99.90;;;;;;4960195;28;20204;-87
2022/03/04 04:25:23;;;;;;;13.90;8.57;;;0.90;99.90;;;;;;4959900;28;20188;-88
2022/03/04 04:27:49;;;;;;;15.60;9.03;;;0.80;99.90;;;;;;4959720;28;20181;-88
2022/03/04 04:30:14;;;;;;;14.07;8.33;;;0.80;99.90;;;;;;4976625;28;20217;-88
2022/03/04 04:32:40;;;;;;;15.13;9.00;;;0.70;99.90;;;;;;4959785;28;20195;-87
2022/03/04 04:35:07;;;;;;;14.03;8.97;;;0.70;99.90;;;;;;4959647;28;20183;-89
2022/03/04 04:37:32;;;;;;;16.07;8.80;;;0.60;99.90;;;;;;4959550;28;20645;-88
2022/03/04 04:39:58;;;;;;;16.00;8.90;;;0.50;99.90;;;;;;4959622;28;20184;-88
2022/03/04 04:42:24;;;;;;;13.30;8.17;;;0.40;99.90;;;;;;4959601;28;20180;-87
2022/03/04 04:44:50;;;;;;;15.07;8.50;;;0.40;99.90;;;;;;4959427;28;20191;-87
2022/03/04 04:47:16;;;;;;;15.30;8.73;;;0.40;99.90;;;;;;4959298;28;20176;-87
2022/03/04 04:49:42;;;;;;;15.33;8.47;;;0.40;99.90;;;;;;4959286;28;20220;-88
2022/03/04 04:52:08;;;;;;;15.47;8.33;;;0.40;99.90;;;;;;4959391;28;20176;-86
2022/03/04 04:54:35;;;;;;;15.50;8.67;;;0.40;99.90;;;;;;4959237;28;20232;-87
2022/03/04 04:57:01;;;;;;;16.30;8.60;;;0.50;99.90;;;;;;4959252;28;20243;-87
2022/03/04 04:59:27;;;;;;;16.67;9.53;;;0.40;99.90;;;;;;4958823;28;20180;-87
2022/03/04 05:01:52;;;;;;;15.77;9.50;;;0.30;99.90;;;;;;4959203;28;20623;-87
2022/03/04 05:04:18;;;;;;;15.20;8.50;;;0.40;99.90;;;;;;4959266;28;20244;-87
2022/03/04 05:06:44;;;;;;;16.97;9.33;;;0.30;99.90;;;;;;4959254;28;20185;-86
2022/03/04 05:09:10;;;;;;;17.33;9.90;;;0.40;99.90;;;;;;4959127;28;20636;-88
2022/03/04 05:11:35;;;;;;;16.13;9.37;;;0.40;99.90;;;;;;4958932;28;20215;-87
2022/03/04 05:14:01;;;;;;;16.50;9.70;;;0.40;99.90;;;;;;4975949;28;20537;-87
2022/03/04 05:16:27;;;;;;;20.37;9.60;;;0.40;99.90;;;;;;4958960;28;20188;-87
2022/03/04 05:18:53;;;;;;;16.43;9.40;;;0.50;99.90;;;;;;4958986;28;20193;-87
2022/03/04 05:21:19;;;;;;;16.27;9.13;;;0.40;99.90;;;;;;4975535;28;20243;-87
2022/03/04 05:24:00;;;;;;;17.40;9.37;;;0.40;99.90;;;;;;4959194;28;20619;-87
2022/03/04 05:26:27;;;;;;;18.30;9.73;;;0.40;99.90;;;;;;4959071;28;20671;-87
2022/03/04 05:28:54;;;;;;;16.63;9.33;;;0.40;99.90;;;;;;4958786;28;20622;-87
2022/03/04 05:31:20;;;;;;;16.73;9.57;;;0.40;99.90;;;;;;4976292;28;20205;-87
2022/03/04 05:33:46;;;;;;;15.63;8.97;;;0.50;99.90;;;;;;4958893;28;20180;-87
2022/03/04 05:36:12;;;;;;;20.03;9.47;;;0.50;99.90;;;;;;4958834;28;20189;-87
2022/03/04 05:38:37;;;;;;;13.73;8.83;;;0.40;99.90;;;;;;4958970;28;20226;-87
2022/03/04 05:41:03;;;;;;;14.47;8.63;;;0.50;99.90;;;;;;4958960;28;20180;-87
2022/03/04 05:43:29;;;;;;;16.50;9.40;;;0.50;99.90;;;;;;4975866;28;20519;-87
2022/03/04 05:45:54;;;;;;;15.37;9.00;;;0.50;99.90;;;;;;4958603;28;20566;-87
2022/03/04 05:48:20;;;;;;;16.30;8.80;;;0.50;99.90;;;;;;4976108;28;20178;-87
2022/03/04 05:50:46;;;;;;;15.30;8.97;;;0.60;99.90;;;;;;4958797;28;20280;-87
2022/03/04 05:53:12;;;;;;;15.90;9.23;;;0.60;99.90;;;;;;4958844;28;20263;-87
2022/03/04 05:55:37;;;;;;;15.27;9.00;;;0.60;99.90;;;;;;4975896;28;20236;-86
2022/03/04 05:58:03;;;;;;;14.50;8.70;;;0.60;99.90;;;;;;4958758;28;20320;-87
2022/03/04 06:00:29;;;;;;;14.50;9.23;;;0.60;99.90;;;;;;4958605;28;20186;-87
2022/03/04 06:02:55;;;;;;;16.67;9.07;;;0.60;99.90;;;;;;4958748;28;20180;-86
2022/03/04 06:05:21;;;;;;;15.33;8.83;;;0.60;99.90;;;;;;4976010;28;20239;-87
2022/03/04 06:07:47;;;;;;;17.23;9.70;;;0.50;99.90;;;;;;4961996;28;20184;-87
2022/03/04 06:10:13;;;;;;;14.80;9.00;;;0.60;99.90;;;;;;4962360;28;20200;-87
2022/03/04 06:12:38;;;;;;;19.43;11.20;;;0.60;99.90;;;;;;4962440;28;20702;-87
2022/03/04 06:15:05;;;;;;;14.73;9.27;;;0.60;99.90;;;;;;4961961;28;20188;-87
2022/03/04 06:17:31;;;;;;;16.27;9.40;;;0.60;99.90;;;;;;4961960;28;20184;-87
2022/03/04 06:19:57;;;;;;;15.07;8.67;;;0.60;99.90;;;;;;4962486;28;20629;-86
2022/03/04 06:22:23;;;;;;;15.93;9.57;;;0.70;99.90;;;;;;4962133;28;20172;-87
2022/03/04 06:24:49;;;;;;;17.37;9.33;;;0.70;99.90;;;;;;4962206;28;20577;-86
2022/03/04 06:27:14;;;;;;;18.47;10.40;;;0.70;99.90;;;;;;4961440;28;20193;-87
2022/03/04 06:29:41;;;;;;;16.17;9.37;;;0.80;99.90;;;;;;4961785;28;20191;-87
2022/03/04 06:32:07;;;;;;;18.13;9.73;;;0.80;99.90;;;;;;4962320;28;20279;-87
2022/03/04 06:34:33;;;;;;;18.03;10.10;;;0.80;99.90;;;;;;4979085;28;20218;-86
2022/03/04 06:36:59;;;;;;;16.43;9.57;;;0.80;99.90;;;;;;4961752;28;20183;-86
2022/03/04 06:39:24;;;;;;;17.87;10.13;;;0.90;99.90;;;;;;4961737;28;20184;-87
2022/03/04 06:41:50;;;;;;;19.33;9.80;;;0.90;99.90;;;;;;4961796;28;20188;-87
2022/03/04 06:44:16;;;;;;;16.90;9.70;;;0.90;99.90;;;;;;4979076;28;20195;-87
2022/03/04 06:46:41;;;;;;;15.60;8.97;;;0.90;99.90;;;;;;4961821;28;20264;-88
2022/03/04 06:49:11;;;;;;;20.93;9.67;;;0.90;99.90;;;;;;4961563;28;20584;-87
2022/03/04 06:51:40;;;;;;;16.60;9.10;;;0.90;99.90;;;;;;4961591;28;20215;-87
2022/03/04 06:54:06;;;;;;;15.70;9.23;;;0.90;99.90;;;;;;4978549;28;20224;-87
2022/03/04 06:56:32;;;;;;;15.70;9.03;;;0.90;99.90;;;;;;4961198;28;20228;-86
2022/03/04 06:58:58;;;;;;;16.13;8.60;;;1.00;99.90;;;;;;4961142;28;20203;-86
2022/03/04 07:01:24;;;;;;;14.83;9.27;;;1.00;99.90;;;;;;4961436;28;20215;-87
2022/03/04 07:03:50;;;;;;;13.57;8.40;;;1.00;99.90;;;;;;4961308;28;20184;-86
2022/03/04 07:06:18;;;;;;;15.33;8.70;;;1.00;99.90;;;;;;4961428;28;20180;-87
2022/03/04 07:08:44;;;;;;;14.13;7.97;;;1.00;99.90;;;;;;4961159;28;20187;-87
2022/03/04 07:11:09;;;;;;;13.00;7.80;;;1.00;99.90;;;;;;4978241;28;20231;-87
2022/03/04 07:13:35;;;;;;;15.60;8.00;;;1.10;99.90;;;;;;4961275;28;20296;-87
2022/03/04 07:16:01;;;;;;;15.37;8.90;;;1.10;99.90;;;;;;4961117;28;20189;-87
2022/03/04 07:18:31;;;;;;;14.70;7.67;;;1.10;99.90;;;;;;4961119;28;20184;-87
2022/03/04 07:21:00;;;;;;;18.57;8.70;;;1.20;99.90;;;;;;4978384;28;20176;-87
2022/03/04 07:23:26;;;;;;;17.50;8.33;;;1.20;99.90;;;;;;4960876;28;20173;-88
2022/03/04 07:25:52;;;;;;;13.00;7.40;;;1.20;99.90;;;;;;4960847;28;20652;-87
2022/03/04 07:28:18;;;;;;;15.40;8.93;;;1.20;99.90;;;;;;4961088;28;20191;-87
2022/03/04 07:30:44;;;;;;;12.60;8.13;;;1.20;99.90;;;;;;4960674;28;20849;-88
2022/03/04 07:33:10;;;;;;;17.30;8.53;;;1.20;99.90;;;;;;4961269;28;20178;-88
2022/03/04 07:35:41;;;;;;;16.00;8.53;;;1.20;99.90;;;;;;4960972;28;20275;-88
2022/03/04 07:38:07;;;;;;;16.00;8.47;;;1.20;99.90;;;;;;4961076;28;20184;-86
2022/03/04 07:40:33;;;;;;;17.83;9.70;;;1.20;99.90;;;;;;4961174;28;20183;-88
2022/03/04 07:42:59;;;;;;;15.60;9.33;;;1.20;99.90;;;;;;4961042;28;20181;-87
2022/03/04 07:45:25;;;;;;;18.97;9.97;;;1.20;99.90;;;;;;4960295;28;20238;-88
2022/03/04 07:47:50;;;;;;;19.10;9.93;;;1.20;99.90;;;;;;4960530;28;20184;-88
2022/03/04 07:50:17;;;;;;;19.27;10.77;;;1.20;99.90;;;;;;4960432;28;20227;-88
2022/03/04 07:52:44;;;;;;;20.97;10.33;;;1.10;99.90;;;;;;4960727;28;20191;-88
2022/03/04 07:55:11;;;;;;;20.77;10.87;;;1.10;99.90;;;;;;4960481;28;20237;-89
2022/03/04 07:57:37;;;;;;;16.33;10.10;;;1.10;99.90;;;;;;4960472;28;20350;-88
2022/03/04 08:00:11;;;;;;;18.80;10.47;;;1.10;99.90;;;;;;4960071;28;20268;-89
2022/03/04 08:02:38;;;;;;;17.97;9.93;;;1.10;99.90;;;;;;4960250;28;20184;-88
2022/03/04 08:05:04;;;;;;;22.97;11.03;;;1.20;99.90;;;;;;4960147;28;20192;-88
2022/03/04 08:07:30;;;;;;;19.57;10.53;;;1.10;99.90;;;;;;4960007;28;20187;-88
2022/03/04 08:09:55;;;;;;;21.63;11.13;;;1.10;99.90;;;;;;4977381;28;20212;-88
2022/03/04 08:12:22;;;;;;;20.50;12.20;;;1.10;99.90;;;;;;4960244;28;20639;-89
2022/03/04 08:14:48;;;;;;;20.43;11.10;;;1.10;99.90;;;;;;4959939;28;20172;-88
2022/03/04 08:17:14;;;;;;;17.23;10.33;;;1.10;99.90;;;;;;4959690;28;20195;-88
2022/03/04 08:19:41;;;;;;;19.23;10.83;;;1.20;99.90;;;;;;4977082;28;20176;-88
2022/03/04 08:22:07;;;;;;;20.47;10.30;;;1.20;99.90;;;;;;4973193;28;20251;-89
2022/03/04 08:24:32;;;;;;;16.40;10.50;;;1.20;99.90;;;;;;4959940;28;20235;-86
2022/03/04 08:26:58;;;;;;;18.03;10.57;;;1.20;99.90;;;;;;4959614;28;20193;-88
2022/03/04 08:29:24;;;;;;;18.67;9.53;;;1.30;99.90;;;;;;4959141;28;20617;-88
2022/03/04 08:31:49;;;;;;;18.30;9.80;;;1.30;99.90;;;;;;4973426;28;20212;-88
2022/03/04 08:34:15;;;;;;;15.97;9.00;;;1.30;99.90;;;;;;4975703;28;20553;-88
2022/03/04 08:36:41;;;;;;;17.00;9.40;;;1.40;99.90;;;;;;4975698;28;20205;-89
2022/03/04 08:39:07;;;;;;;17.07;9.73;;;1.30;99.90;;;;;;4975815;28;20183;-88
2022/03/04 08:41:34;;;;;;;18.77;9.80;;;1.30;99.90;;;;;;4975654;28;20185;-88
2022/03/04 08:43:59;;;;;;;17.90;9.17;;;1.30;99.90;;;;;;4975745;28;20184;-88
2022/03/04 08:46:25;;;;;;;17.00;9.97;;;1.30;99.90;;;;;;4975431;28;20547;-88
2022/03/04 08:48:51;;;;;;;16.47;9.13;;;1.30;99.90;;;;;;4975648;28;20188;-87
2022/03/04 08:51:17;;;;;;;15.63;9.20;;;1.30;99.90;;;;;;4975771;28;20294;-88
2022/03/04 08:53:43;;;;;;;18.10;9.60;;;1.40;99.90;;;;;;4975550;28;20250;-88
2022/03/04 08:56:09;;;;;;;16.83;9.47;;;1.40;99.90;;;;;;4975423;28;20228;-88
2022/03/04 08:58:35;;;;;;;16.83;9.80;;;1.40;99.90;;;;;;4976420;28;20267;-88
2022/03/04 09:01:01;;;;;;;17.00;9.63;;;1.40;99.90;;;;;;4958989;28;20592;-89
2022/03/04 09:03:27;;;;;;;18.43;10.20;;;1.30;99.90;;;;;;4959369;28;20181;-88
2022/03/04 09:05:53;;;;;;;18.20;9.33;;;1.30;99.90;;;;;;4955224;28;20212;-89
2022/03/04 09:08:19;;;;;;;19.10;9.73;;;1.30;99.90;;;;;;4940138;29;20620;-88
2022/03/04 09:10:45;;;;;;;17.03;9.67;;;1.30;99.90;;;;;;4940029;29;20223;-88
2022/03/04 09:13:11;;;;;;;16.53;9.53;;;1.30;99.90;;;;;;4940077;29;20191;-88
2022/03/04 09:15:37;;;;;;;15.63;9.23;;;1.30;99.90;;;;;;4939634;29;20667;-87
2022/03/04 09:18:02;;;;;;;15.40;8.93;;;1.40;99.90;;;;;;4939935;29;20210;-88
2022/03/04 09:20:28;;;;;;;17.10;8.17;;;1.40;99.90;;;;;;4957045;29;20209;-88
2022/03/04 09:22:55;;;;;;;13.00;7.30;;;1.50;99.90;;;;;;4939982;29;20189;-89
2022/03/04 09:25:22;;;;;;;12.50;7.90;;;1.50;99.90;;;;;;4939836;29;20190;-88
2022/03/04 09:27:49;;;;;;;15.77;9.30;;;1.50;99.90;;;;;;4950837;28;20188;-89
2022/03/04 09:30:15;;;;;;;17.17;10.17;;;1.60;99.90;;;;;;4958997;28;20256;-88
2022/03/04 09:32:41;;;;;;;13.60;8.93;;;1.50;99.90;;;;;;4958984;28;20199;-88
2022/03/04 09:35:07;;;;;;;14.90;8.77;;;1.40;99.90;;;;;;4959087;28;20183;-88
2022/03/04 09:37:34;;;;;;;15.20;8.90;;;1.40;99.90;;;;;;4959135;28;20188;-88
2022/03/04 09:40:00;;;;;;;16.17;9.93;;;1.40;99.90;;;;;;4959186;28;20193;-87
2022/03/04 09:42:27;;;;;;;18.23;11.50;;;1.40;99.90;;;;;;4962286;28;20181;-89
2022/03/04 09:44:52;;;;;;;16.27;10.10;;;1.30;99.90;;;;;;4979822;28;20194;-88
2022/03/04 09:47:22;;;;;;;14.87;9.27;;;1.20;99.90;;;;;;4962469;28;20600;-87
2022/03/04 09:49:50;;;;;;;14.83;9.07;;;1.10;99.90;;;;;;4962756;28;20501;-87
2022/03/04 09:52:16;;;;;;;14.10;9.17;;;1.00;99.90;;;;;;4962828;28;20188;-88
2022/03/04 09:54:48;;;;;;;13.83;8.47;;;0.90;99.90;;;;;;4962471;28;20207;-88
2022/03/04 09:57:14;;;;;;;17.37;10.10;;;1.00;99.90;;;;;;4962533;28;20186;-87
2022/03/04 09:59:40;;;;;;;16.30;9.77;;;1.00;99.90;;;;;;4962383;28;20180;-88
2022/03/04 10:02:07;;;;;;;16.73;10.47;;;1.00;99.90;;;;;;4962574;28;20668;-88
2022/03/04 10:04:33;;;;;;;19.23;10.93;;;0.90;99.90;;;;;;4962534;28;20180;-88
2022/03/04 10:07:16;;;;;;;17.30;10.33;;;0.90;99.90;;;;;;4962258;28;20184;-86
2022/03/04 10:09:44;;;;;;;14.83;8.97;;;0.90;99.90;;;;;;4962352;28;20180;-88
2022/03/04 10:12:11;;;;;;;12.73;8.17;;;0.90;99.90;;;;;;4962121;28;20184;-88
2022/03/04 10:14:57;;;;;;;16.83;9.07;;;0.90;99.90;;;;;;4961997;28;20214;-87
2022/03/04 10:17:23;;;;;;;15.67;9.33;;;0.90;99.90;;;;;;4962234;28;20191;-88
2022/03/04 10:19:57;;;;;;;15.90;9.20;;;0.80;99.90;;;;;;4962129;28;20203;-88
2022/03/04 10:22:32;;;;;;;15.50;9.30;;;0.70;99.90;;;;;;4962122;28;20312;-88
2022/03/04 10:24:58;;;;;;;16.50;8.83;;;0.80;99.90;;;;;;4961818;28;20171;-89
2022/03/04 10:27:24;;;;;;;13.93;8.43;;;0.90;99.90;;;;;;4961909;28;20243;-88
2022/03/04 10:29:51;;;;;;;14.37;8.20;;;1.00;99.90;;;;;;4961487;28;20633;-88
2022/03/04 10:32:22;;;;;;;11.33;7.17;;;1.20;99.90;;;;;;4962127;28;20226;-88
2022/03/04 10:34:59;;;;;;;12.30;7.73;;;1.30;99.90;;;;;;4961850;28;20178;-87
2022/03/04 10:37:43;;;;;;;11.70;7.00;;;1.40;99.90;;;;;;4961858;28;20180;-88
2022/03/04 10:40:44;;;;;;;8.80;5.60;;;1.50;99.90;;;;;;4961803;28;20184;-88
2022/03/04 10:43:11;;;;;;;9.47;5.87;;;1.50;99.90;;;;;;4961822;28;20176;-88
2022/03/04 10:45:40;;;;;;;7.70;4.90;;;1.70;99.90;;;;;;4961552;28;20180;-88
2022/03/04 10:48:18;;;;;;;9.17;5.10;;;1.70;99.90;;;;;;4961693;28;20173;-88
2022/03/04 10:50:47;;;;;;;7.03;4.73;;;1.80;99.90;;;;;;4961570;28;20211;-88
2022/03/04 10:53:17;;;;;;;7.97;5.10;;;1.90;99.90;;;;;;4961132;28;20177;-88
2022/03/04 10:55:44;;;;;;;8.00;4.93;;;1.90;99.90;;;;;;4961091;28;20239;-87
2022/03/04 10:58:19;;;;;;;8.60;5.37;;;2.00;99.90;;;;;;4961386;28;20304;-88
2022/03/04 11:00:47;;;;;;;8.63;5.47;;;2.00;99.90;;;;;;4978623;28;20170;-88
2022/03/04 11:03:19;;;;;;;8.53;5.20;;;2.00;99.90;;;;;;4961409;28;20176;-87
2022/03/04 11:05:45;;;;;;;9.00;5.23;;;2.00;99.90;;;;;;4961286;28;20180;-89
2022/03/04 11:08:11;;;;;;;7.87;5.40;;;2.10;99.90;;;;;;4961293;28;20177;-88
2022/03/04 11:10:37;;;;;;;11.50;5.20;;;2.20;99.90;;;;;;4978478;28;20191;-88
2022/03/04 11:13:05;;;;;;;11.23;5.37;;;2.40;99.90;;;;;;4978567;28;20621;-88
2022/03/04 11:15:32;;;;;;;8.43;5.80;;;2.50;99.90;;;;;;4978147;28;20174;-89
2022/03/04 11:18:05;;;;;;;10.53;5.10;;;2.60;99.90;;;;;;4961275;28;20181;-88
2022/03/04 11:20:31;;;;;;;8.07;5.30;;;2.70;99.90;;;;;;4961167;28;20166;-89
2022/03/04 11:22:58;;;;;;;8.97;4.70;;;2.80;99.90;;;;;;4960867;28;20182;-87
2022/03/04 11:25:23;;;;;;;10.23;4.77;;;2.80;99.90;;;;;;4978381;28;20165;-89
2022/03/04 11:27:55;;;;;;;7.40;4.50;;;2.90;99.90;;;;;;4961309;28;20191;-88
2022/03/04 11:30:39;;;;;;;7.70;4.40;;;2.90;99.90;;;;;;4960659;28;20287;-88
2022/03/04 11:33:15;;;;;;;6.67;4.07;;;2.90;99.90;;;;;;4961024;28;20184;-88
2022/03/04 11:36:17;;;;;;;7.63;5.00;;;2.90;99.90;;;;;;4961056;28;20707;-88
2022/03/04 11:38:48;;;;;;;7.23;4.47;;;2.90;99.90;;;;;;4884131;29;20193;-89
2022/03/04 11:41:30;;;;;;;9.07;4.30;;;2.90;99.90;;;;;;4965576;28;20196;-88
2022/03/04 11:43:58;;;;;;;7.60;4.30;;;3.00;99.90;;;;;;4960763;28;20183;-88
2022/03/04 11:46:41;;;;;;;11.83;4.50;;;3.00;99.90;;;;;;4977849;28;20624;-87
2022/03/04 11:49:30;;;;;;;7.27;4.60;;;3.10;99.90;;;;;;4978020;28;20671;-88
2022/03/04 11:52:07;;;;;;;5.27;4.07;;;3.20;99.90;;;;;;4960774;28;20216;-88
2022/03/04 11:54:35;;;;;;;6.77;4.53;;;3.20;99.90;;;;;;4960514;28;20271;-88
2022/03/04 11:57:23;;;;;;;7.07;4.83;;;3.30;99.90;;;;;;4960226;28;20333;-88
2022/03/04 12:00:16;;;;;;;9.30;6.33;;;3.30;99.90;;;;;;4960774;28;20176;-88
2022/03/04 12:02:42;;;;;;;9.87;6.20;;;3.40;99.90;;;;;;4950939;28;20571;-87
2022/03/04 12:05:21;;;;;;;8.47;6.00;;;3.30;99.90;;;;;;4959728;28;20633;-88
2022/03/04 12:07:49;;;;;;;8.17;5.60;;;3.40;99.90;;;;;;4960622;28;20188;-88
2022/03/04 12:10:26;;;;;;;10.97;6.90;;;3.40;99.90;;;;;;4977370;28;20201;-88
2022/03/04 12:13:10;;;;;;;10.63;6.30;;;3.20;99.90;;;;;;4960030;28;20242;-88
2022/03/04 12:15:40;;;;;;;14.57;6.17;;;3.30;99.90;;;;;;4977187;28;20169;-88
2022/03/04 12:18:08;;;;;;;12.83;6.23;;;3.30;99.90;;;;;;4960108;28;20620;-88
2022/03/04 12:20:39;;;;;;;7.43;4.60;;;3.40;99.90;;;;;;4959796;28;20180;-88
2022/03/04 12:23:09;;;;;;;10.40;5.03;;;3.40;99.90;;;;;;4959944;28;20177;-87
2022/03/04 12:28:32;;;;;;;7.80;4.73;;;3.50;99.90;;;;;;4977013;28;20183;-88
2022/03/04 12:31:00;;;;;;;7.37;4.90;;;3.50;99.90;;;;;;4959076;28;20647;-88
2022/03/04 12:33:37;;;;;;;5.97;4.30;;;3.50;99.90;;;;;;4959977;28;20173;-87
2022/03/04 12:36:09;;;;;;;8.10;5.07;;;3.60;99.90;;;;;;4959736;28;20180;-87
2022/03/04 12:38:47;;;;;;;5.80;4.60;;;3.80;99.90;;;;;;4959598;28;20190;-87
2022/03/04 12:41:17;;;;;;;8.37;4.80;;;3.80;99.90;;;;;;4959789;28;20207;-88
2022/03/04 12:43:58;;;;;;;6.60;4.30;;;4.00;99.90;;;;;;4959600;28;20187;-88
2022/03/04 12:46:29;;;;;;;6.83;4.70;;;4.20;99.90;;;;;;4976351;28;20165;-88
2022/03/04 12:48:56;;;;;;;6.73;4.47;;;4.50;99.90;;;;;;4976601;28;20172;-88
2022/03/04 12:51:24;;;;;;;7.27;4.50;;;4.80;99.90;;;;;;4976693;28;20232;-88
2022/03/04 12:53:51;;;;;;;6.13;4.40;;;5.00;99.90;;;;;;4959563;28;20231;-88